KINL/INL METAR and TAF weather

Enter ICAO airport designator
Station Type Date Time Source
KINL METAR 2019/02/22 22:55 UTC NOAA

KINL 222255Z AUTO 29003KT 10SM SCT055 OVC070 M04/M09 A3025 RMK AO2 SLP269 T10441089


Station Type Date Time Source
KINL Decoded METAR 2019/02/22 22:55 UTC NOAA

FALLS INTERNATIONAL AIRPORT , MN, United States (KINL) 48-34N 093-24W 360M
Feb 22, 2019 - 05:55 PM EST / 2019.02.22 2255 UTC
Wind: from the WNW (290 degrees) at 3 MPH (3 KT):0
Visibility: 10 mile(s):0
Sky conditions: overcast
Temperature: 24.1 F (-4.4 C)
Dew Point: 16.0 F (-8.9 C)
Relative Humidity: 70%
Pressure (altimeter): 30.25 in. Hg (1024 hPa)
ob: KINL 222255Z AUTO 29003KT 10SM SCT055 OVC070 M04/M09 A3025 RMK AO2 SLP269 T10441089
cycle: 23

Station Type Date Time Source
KINL TAF 2019/02/22 22:06 UTC NOAA

TAF
AMD KINL 222203Z 2222/2318 23005KT P6SM VCSH OVC090
FM230300 00000KT 5SM -SN OVC015
FM231000 VRB04KT 2SM -SN OVC009
FM231500 12006KT 4SM -SN BR OVC008


Example: see airport list